sensor_id;sensor_type;location;lat;lon;timestamp;pressure;altitude;pressure_sealevel;temperature;humidity
10832;BME280;5469;48.574;8.768;2022-09-04T00:01:59;94915.75;;;18.52;70.17
10832;BME280;5469;48.574;8.768;2022-09-04T00:04:42;94908.22;;;18.37;70.66
10832;BME280;5469;48.574;8.768;2022-09-04T00:07:24;94904.78;;;18.27;71.54
10832;BME280;5469;48.574;8.768;2022-09-04T00:10:14;94915.22;;;18.03;71.95
10832;BME280;5469;48.574;8.768;2022-09-04T00:12:55;94914.56;;;18.23;71.04
10832;BME280;5469;48.574;8.768;2022-09-04T00:15:38;94911.13;;;18.14;71.98
10832;BME280;5469;48.574;8.768;2022-09-04T00:18:19;94913.31;;;18.12;72.53
10832;BME280;5469;48.574;8.768;2022-09-04T00:21:04;94918.97;;;17.58;75.47
10832;BME280;5469;48.574;8.768;2022-09-04T00:23:47;94920.84;;;17.40;76.76
10832;BME280;5469;48.574;8.768;2022-09-04T00:26:35;94913.66;;;16.92;80.70
10832;BME280;5469;48.574;8.768;2022-09-04T00:29:17;94919.59;;;17.46;76.98
10832;BME280;5469;48.574;8.768;2022-09-04T00:31:59;94911.25;;;17.57;75.92
10832;BME280;5469;48.574;8.768;2022-09-04T00:34:47;94917.88;;;17.42;77.03
10832;BME280;5469;48.574;8.768;2022-09-04T00:37:31;94918.06;;;17.89;73.07
10832;BME280;5469;48.574;8.768;2022-09-04T00:40:13;94920.69;;;17.45;76.31
10832;BME280;5469;48.574;8.768;2022-09-04T00:43:09;94924.13;;;17.20;78.06
10832;BME280;5469;48.574;8.768;2022-09-04T00:45:58;94929.91;;;17.05;78.84
10832;BME280;5469;48.574;8.768;2022-09-04T00:51:45;94923.78;;;17.13;78.49
10832;BME280;5469;48.574;8.768;2022-09-04T00:54:43;94933.78;;;16.58;82.74
10832;BME280;5469;48.574;8.768;2022-09-04T00:57:49;94933.06;;;16.44;83.92
10832;BME280;5469;48.574;8.768;2022-09-04T01:00:31;94934.47;;;16.73;82.24
10832;BME280;5469;48.574;8.768;2022-09-04T01:03:33;94934.94;;;16.66;82.85
10832;BME280;5469;48.574;8.768;2022-09-04T01:06:20;94935.81;;;16.84;81.49
10832;BME280;5469;48.574;8.768;2022-09-04T01:09:28;94936.63;;;16.93;80.03
10832;BME280;5469;48.574;8.768;2022-09-04T01:12:15;94941.56;;;17.09;79.51
10832;BME280;5469;48.574;8.768;2022-09-04T01:15:05;94941.91;;;16.76;82.38
10832;BME280;5469;48.574;8.768;2022-09-04T01:18:00;94935.28;;;16.73;82.62
10832;BME280;5469;48.574;8.768;2022-09-04T01:20:59;94939.78;;;16.64;83.47
10832;BME280;5469;48.574;8.768;2022-09-04T01:24:12;94943.16;;;16.47;85.17
10832;BME280;5469;48.574;8.768;2022-09-04T01:26:57;94949.22;;;16.84;81.69
10832;BME280;5469;48.574;8.768;2022-09-04T01:29:42;94945.78;;;16.70;82.76
10832;BME280;5469;48.574;8.768;2022-09-04T01:32:28;94955.28;;;16.76;80.58
10832;BME280;5469;48.574;8.768;2022-09-04T01:35:11;94958.19;;;16.88;81.05
10832;BME280;5469;48.574;8.768;2022-09-04T01:37:56;94957.63;;;17.09;78.72
10832;BME280;5469;48.574;8.768;2022-09-04T01:40:39;94957.91;;;17.38;76.22
10832;BME280;5469;48.574;8.768;2022-09-04T01:43:20;94964.97;;;17.34;76.46
10832;BME280;5469;48.574;8.768;2022-09-04T01:46:04;94956.94;;;17.34;76.06
10832;BME280;5469;48.574;8.768;2022-09-04T01:48:48;94966.53;;;17.35;75.98
10832;BME280;5469;48.574;8.768;2022-09-04T01:51:34;94969.34;;;17.30;77.05
10832;BME280;5469;48.574;8.768;2022-09-04T01:54:22;94967.56;;;16.77;80.34
10832;BME280;5469;48.574;8.768;2022-09-04T01:57:07;94970.78;;;16.65;81.54
10832;BME280;5469;48.574;8.768;2022-09-04T01:59:53;94964.63;;;16.78;80.83
10832;BME280;5469;48.574;8.768;2022-09-04T02:02:36;94962.19;;;16.99;78.72
10832;BME280;5469;48.574;8.768;2022-09-04T02:05:19;94963.13;;;17.03;77.65
10832;BME280;5469;48.574;8.768;2022-09-04T02:08:03;94961.22;;;16.42;82.83
10832;BME280;5469;48.574;8.768;2022-09-04T02:10:47;94965.97;;;16.45;83.02
10832;BME280;5469;48.574;8.768;2022-09-04T02:13:36;94968.25;;;16.60;82.37
10832;BME280;5469;48.574;8.768;2022-09-04T02:16:23;94974.88;;;16.85;79.39
10832;BME280;5469;48.574;8.768;2022-09-04T02:19:09;94976.25;;;17.14;76.48
10832;BME280;5469;48.574;8.768;2022-09-04T02:21:50;94981.59;;;17.14;76.91
10832;BME280;5469;48.574;8.768;2022-09-04T02:24:32;94983.91;;;16.98;77.99
10832;BME280;5469;48.574;8.768;2022-09-04T02:27:12;94975.19;;;17.32;74.51
10832;BME280;5469;48.574;8.768;2022-09-04T02:29:55;94978.22;;;17.39;73.71
10832;BME280;5469;48.574;8.768;2022-09-04T02:32:41;94979.13;;;17.26;74.49
10832;BME280;5469;48.574;8.768;2022-09-04T02:35:22;94982.00;;;17.38;73.33
10832;BME280;5469;48.574;8.768;2022-09-04T02:38:06;94982.94;;;17.42;72.78
10832;BME280;5469;48.574;8.768;2022-09-04T02:40:51;94979.19;;;17.43;71.68
10832;BME280;5469;48.574;8.768;2022-09-04T02:43:37;94970.66;;;17.41;72.36
10832;BME280;5469;48.574;8.768;2022-09-04T02:46:20;94978.56;;;17.46;71.74
10832;BME280;5469;48.574;8.768;2022-09-04T02:49:05;94982.94;;;17.42;71.21
10832;BME280;5469;48.574;8.768;2022-09-04T02:51:50;94978.72;;;17.50;70.61
10832;BME280;5469;48.574;8.768;2022-09-04T02:54:40;94976.66;;;17.38;71.14
10832;BME280;5469;48.574;8.768;2022-09-04T02:57:24;94980.88;;;17.31;73.13
10832;BME280;5469;48.574;8.768;2022-09-04T03:00:05;94976.31;;;17.31;72.74
10832;BME280;5469;48.574;8.768;2022-09-04T03:02:45;94979.75;;;17.23;73.41
10832;BME280;5469;48.574;8.768;2022-09-04T03:05:28;94979.53;;;17.11;75.07
10832;BME280;5469;48.574;8.768;2022-09-04T03:08:11;94980.94;;;16.99;76.85
10832;BME280;5469;48.574;8.768;2022-09-04T03:10:54;94979.13;;;17.26;73.78
10832;BME280;5469;48.574;8.768;2022-09-04T03:13:37;94981.81;;;17.26;73.63
10832;BME280;5469;48.574;8.768;2022-09-04T03:16:20;94991.41;;;17.27;71.63
10832;BME280;5469;48.574;8.768;2022-09-04T03:19:05;94994.56;;;17.29;72.27
10832;BME280;5469;48.574;8.768;2022-09-04T03:21:48;94989.34;;;17.24;72.82
10832;BME280;5469;48.574;8.768;2022-09-04T03:24:32;94995.34;;;17.21;73.12
10832;BME280;5469;48.574;8.768;2022-09-04T03:27:11;94986.78;;;17.10;75.04
10832;BME280;5469;48.574;8.768;2022-09-04T03:29:56;94990.38;;;17.06;74.87
10832;BME280;5469;48.574;8.768;2022-09-04T03:32:39;94994.84;;;17.19;72.63
10832;BME280;5469;48.574;8.768;2022-09-04T03:35:27;94998.00;;;17.21;71.65
10832;BME280;5469;48.574;8.768;2022-09-04T03:38:15;94999.94;;;17.29;71.40
10832;BME280;5469;48.574;8.768;2022-09-04T03:41:02;94997.25;;;17.29;71.23
10832;BME280;5469;48.574;8.768;2022-09-04T03:43:59;94994.09;;;17.27;71.26
10832;BME280;5469;48.574;8.768;2022-09-04T03:46:47;94997.94;;;17.03;73.60
10832;BME280;5469;48.574;8.768;2022-09-04T03:49:34;94995.41;;;16.98;73.76
10832;BME280;5469;48.574;8.768;2022-09-04T03:52:19;94997.78;;;17.00;73.87
10832;BME280;5469;48.574;8.768;2022-09-04T03:55:13;94991.41;;;16.87;74.70
10832;BME280;5469;48.574;8.768;2022-09-04T03:58:04;95002.59;;;16.89;74.32
10832;BME280;5469;48.574;8.768;2022-09-04T04:00:48;95003.47;;;16.76;75.53
10832;BME280;5469;48.574;8.768;2022-09-04T04:03:47;94999.31;;;16.70;76.71
10832;BME280;5469;48.574;8.768;2022-09-04T04:06:35;95000.97;;;16.79;75.13
10832;BME280;5469;48.574;8.768;2022-09-04T04:09:37;95009.00;;;16.79;76.57
10832;BME280;5469;48.574;8.768;2022-09-04T04:12:29;95020.03;;;16.55;78.66
10832;BME280;5469;48.574;8.768;2022-09-04T04:15:22;95019.56;;;16.62;75.34
10832;BME280;5469;48.574;8.768;2022-09-04T04:18:09;95024.28;;;16.79;73.82
10832;BME280;5469;48.574;8.768;2022-09-04T04:20:54;95019.00;;;16.96;71.63
10832;BME280;5469;48.574;8.768;2022-09-04T04:24:08;95030.94;;;16.90;72.87
10832;BME280;5469;48.574;8.768;2022-09-04T04:26:59;95032.00;;;16.80;74.96
10832;BME280;5469;48.574;8.768;2022-09-04T04:32:57;95043.50;;;16.81;73.03
10832;BME280;5469;48.574;8.768;2022-09-04T04:35:40;95044.69;;;16.75;74.34
10832;BME280;5469;48.574;8.768;2022-09-04T04:38:35;95040.44;;;16.74;74.66
10832;BME280;5469;48.574;8.768;2022-09-04T04:41:26;95040.06;;;16.67;74.89
10832;BME280;5469;48.574;8.768;2022-09-04T04:44:10;95042.50;;;16.77;73.17
10832;BME280;5469;48.574;8.768;2022-09-04T04:46:59;95051.28;;;16.69;74.71
10832;BME280;5469;48.574;8.768;2022-09-04T04:49:55;95058.38;;;16.73;74.76
10832;BME280;5469;48.574;8.768;2022-09-04T04:52:38;95056.50;;;16.51;76.08
10832;BME280;5469;48.574;8.768;2022-09-04T04:55:28;95062.19;;;16.36;79.58
10832;BME280;5469;48.574;8.768;2022-09-04T04:58:20;95065.09;;;16.26;81.65
10832;BME280;5469;48.574;8.768;2022-09-04T05:01:04;95066.72;;;16.72;74.38
10832;BME280;5469;48.574;8.768;2022-09-04T05:04:00;95065.97;;;16.57;77.74
10832;BME280;5469;48.574;8.768;2022-09-04T05:06:44;95076.66;;;16.57;76.64
10832;BME280;5469;48.574;8.768;2022-09-04T05:09:27;95070.88;;;16.78;73.83
10832;BME280;5469;48.574;8.768;2022-09-04T05:12:09;95075.97;;;16.88;73.21
10832;BME280;5469;48.574;8.768;2022-09-04T05:14:53;95079.91;;;16.91;72.80
10832;BME280;5469;48.574;8.768;2022-09-04T05:17:37;95086.03;;;16.46;81.33
10832;BME280;5469;48.574;8.768;2022-09-04T05:20:28;95095.28;;;16.63;78.62
10832;BME280;5469;48.574;8.768;2022-09-04T05:23:15;95098.09;;;16.57;78.54
10832;BME280;5469;48.574;8.768;2022-09-04T05:25:57;95101.78;;;16.84;76.05
10832;BME280;5469;48.574;8.768;2022-09-04T05:28:41;95100.56;;;16.90;75.85
10832;BME280;5469;48.574;8.768;2022-09-04T05:31:25;95114.97;;;17.03;72.77
10832;BME280;5469;48.574;8.768;2022-09-04T05:34:08;95119.28;;;17.13;73.70
10832;BME280;5469;48.574;8.768;2022-09-04T05:36:50;95119.91;;;17.10;76.11
10832;BME280;5469;48.574;8.768;2022-09-04T05:39:36;95118.66;;;16.71;79.00
10832;BME280;5469;48.574;8.768;2022-09-04T05:45:33;95135.81;;;16.70;80.55
10832;BME280;5469;48.574;8.768;2022-09-04T05:48:20;95138.69;;;16.73;80.88
10832;BME280;5469;48.574;8.768;2022-09-04T05:51:04;95138.41;;;16.97;76.15
10832;BME280;5469;48.574;8.768;2022-09-04T05:54:04;95135.34;;;17.13;77.84
10832;BME280;5469;48.574;8.768;2022-09-04T05:57:04;95137.19;;;17.35;73.60
10832;BME280;5469;48.574;8.768;2022-09-04T06:00:05;95136.75;;;17.10;77.90
10832;BME280;5469;48.574;8.768;2022-09-04T06:02:58;95139.47;;;16.96;80.48
10832;BME280;5469;48.574;8.768;2022-09-04T06:05:43;95143.34;;;17.35;76.79
10832;BME280;5469;48.574;8.768;2022-09-04T06:08:43;95146.09;;;17.44;75.52
10832;BME280;5469;48.574;8.768;2022-09-04T06:11:38;95155.75;;;17.54;74.29
10832;BME280;5469;48.574;8.768;2022-09-04T06:17:27;95158.91;;;17.56;74.87
10832;BME280;5469;48.574;8.768;2022-09-04T06:20:19;95159.97;;;17.46;78.65
10832;BME280;5469;48.574;8.768;2022-09-04T06:23:19;95164.78;;;17.35;80.08
10832;BME280;5469;48.574;8.768;2022-09-04T06:26:25;95170.25;;;17.53;77.57
10832;BME280;5469;48.574;8.768;2022-09-04T06:29:07;95167.16;;;17.68;78.29
10832;BME280;5469;48.574;8.768;2022-09-04T06:35:15;95172.16;;;17.92;76.09
10832;BME280;5469;48.574;8.768;2022-09-04T06:38:00;95173.84;;;17.79;79.70
10832;BME280;5469;48.574;8.768;2022-09-04T06:40:47;95173.97;;;17.74;82.50
10832;BME280;5469;48.574;8.768;2022-09-04T06:43:31;95178.88;;;17.72;83.19
10832;BME280;5469;48.574;8.768;2022-09-04T06:46:18;95179.81;;;17.76;82.97
10832;BME280;5469;48.574;8.768;2022-09-04T06:49:02;95172.34;;;17.96;78.83
10832;BME280;5469;48.574;8.768;2022-09-04T06:51:47;95184.38;;;18.07;78.63
10832;BME280;5469;48.574;8.768;2022-09-04T06:54:39;95194.44;;;17.93;82.45
10832;BME280;5469;48.574;8.768;2022-09-04T06:57:32;95200.34;;;18.12;79.23
10832;BME280;5469;48.574;8.768;2022-09-04T07:00:13;95195.66;;;18.26;82.12
10832;BME280;5469;48.574;8.768;2022-09-04T07:03:07;95209.09;;;18.44;81.00
10832;BME280;5469;48.574;8.768;2022-09-04T07:05:56;95207.88;;;18.50;78.36
10832;BME280;5469;48.574;8.768;2022-09-04T07:08:46;95203.75;;;18.61;78.34
10832;BME280;5469;48.574;8.768;2022-09-04T07:11:37;95199.63;;;18.46;81.21
10832;BME280;5469;48.574;8.768;2022-09-04T07:14:44;95203.09;;;18.47;79.80
10832;BME280;5469;48.574;8.768;2022-09-04T07:17:28;95205.19;;;18.59;73.76
10832;BME280;5469;48.574;8.768;2022-09-04T07:20:20;95204.72;;;18.74;74.32
10832;BME280;5469;48.574;8.768;2022-09-04T07:23:15;95219.56;;;18.71;74.63
10832;BME280;5469;48.574;8.768;2022-09-04T07:25:59;95215.50;;;18.83;76.92
10832;BME280;5469;48.574;8.768;2022-09-04T07:28:53;95215.19;;;18.93;72.64
10832;BME280;5469;48.574;8.768;2022-09-04T07:31:36;95225.28;;;18.96;75.62
10832;BME280;5469;48.574;8.768;2022-09-04T07:34:17;95226.91;;;18.97;74.06
10832;BME280;5469;48.574;8.768;2022-09-04T07:36:58;95223.75;;;19.12;74.84
10832;BME280;5469;48.574;8.768;2022-09-04T07:39:45;95229.13;;;19.12;72.25
10832;BME280;5469;48.574;8.768;2022-09-04T07:42:28;95230.38;;;19.15;71.02
10832;BME280;5469;48.574;8.768;2022-09-04T07:45:09;95240.00;;;19.25;70.80
10832;BME280;5469;48.574;8.768;2022-09-04T07:47:56;95233.38;;;19.31;68.97
10832;BME280;5469;48.574;8.768;2022-09-04T07:50:49;95234.00;;;19.28;70.36
10832;BME280;5469;48.574;8.768;2022-09-04T07:57:11;95239.19;;;19.50;69.38
10832;BME280;5469;48.574;8.768;2022-09-04T08:00:03;95248.38;;;19.67;69.07
10832;BME280;5469;48.574;8.768;2022-09-04T08:02:59;95249.59;;;19.60;69.87
10832;BME280;5469;48.574;8.768;2022-09-04T08:05:46;95253.91;;;19.70;68.63
10832;BME280;5469;48.574;8.768;2022-09-04T08:08:56;95256.44;;;19.67;68.65
10832;BME280;5469;48.574;8.768;2022-09-04T08:11:45;95255.94;;;19.82;68.50
10832;BME280;5469;48.574;8.768;2022-09-04T08:14:54;95270.44;;;19.98;66.89
10832;BME280;5469;48.574;8.768;2022-09-04T08:17:39;95261.25;;;19.99;66.05
10832;BME280;5469;48.574;8.768;2022-09-04T08:20:29;95259.97;;;20.05;68.35
10832;BME280;5469;48.574;8.768;2022-09-04T08:23:25;95264.94;;;20.33;71.75
10832;BME280;5469;48.574;8.768;2022-09-04T08:26:11;95262.78;;;20.56;70.47
10832;BME280;5469;48.574;8.768;2022-09-04T08:29:08;95271.38;;;20.49;68.21
10832;BME280;5469;48.574;8.768;2022-09-04T08:31:57;95268.13;;;20.65;66.51
10832;BME280;5469;48.574;8.768;2022-09-04T08:34:58;95272.69;;;20.73;70.01
10832;BME280;5469;48.574;8.768;2022-09-04T08:37:44;95270.88;;;21.07;70.34
10832;BME280;5469;48.574;8.768;2022-09-04T08:43:53;95271.94;;;21.35;67.97
10832;BME280;5469;48.574;8.768;2022-09-04T08:50:11;95281.91;;;21.77;65.59
10832;BME280;5469;48.574;8.768;2022-09-04T08:53:24;95278.00;;;21.87;66.00
10832;BME280;5469;48.574;8.768;2022-09-04T08:56:17;95273.66;;;22.07;64.71
10832;BME280;5469;48.574;8.768;2022-09-04T08:59:29;95277.81;;;22.04;65.22
10832;BME280;5469;48.574;8.768;2022-09-04T09:05:58;95287.56;;;22.30;66.44
10832;BME280;5469;48.574;8.768;2022-09-04T09:09:18;95283.88;;;22.01;62.20
10832;BME280;5469;48.574;8.768;2022-09-04T09:15:38;95278.38;;;22.10;64.03
10832;BME280;5469;48.574;8.768;2022-09-04T09:18:40;95281.88;;;21.98;61.49
10832;BME280;5469;48.574;8.768;2022-09-04T09:21:33;95274.97;;;22.21;62.45
10832;BME280;5469;48.574;8.768;2022-09-04T09:24:55;95275.19;;;22.29;61.46
10832;BME280;5469;48.574;8.768;2022-09-04T09:28:16;95285.50;;;22.14;61.23
10832;BME280;5469;48.574;8.768;2022-09-04T09:31:25;95276.31;;;22.89;62.35
10832;BME280;5469;48.574;8.768;2022-09-04T09:34:46;95277.84;;;23.27;62.46
10832;BME280;5469;48.574;8.768;2022-09-04T09:40:58;95281.53;;;22.57;60.30
10832;BME280;5469;48.574;8.768;2022-09-04T09:44:13;95279.59;;;22.82;58.92
10832;BME280;5469;48.574;8.768;2022-09-04T09:47:20;95284.19;;;22.69;59.57
10832;BME280;5469;48.574;8.768;2022-09-04T10:00:00;95278.34;;;23.85;57.05
10832;BME280;5469;48.574;8.768;2022-09-04T10:06:26;95278.78;;;23.47;56.81
10832;BME280;5469;48.574;8.768;2022-09-04T10:12:38;95273.44;;;23.91;57.29
10832;BME280;5469;48.574;8.768;2022-09-04T10:15:35;95269.88;;;23.59;57.03
10832;BME280;5469;48.574;8.768;2022-09-04T10:21:47;95274.38;;;24.11;56.67
10832;BME280;5469;48.574;8.768;2022-09-04T10:24:51;95270.63;;;24.31;56.51
10832;BME280;5469;48.574;8.768;2022-09-04T10:27:46;95265.50;;;23.82;56.04
10832;BME280;5469;48.574;8.768;2022-09-04T10:30:36;95269.25;;;23.65;56.17
10832;BME280;5469;48.574;8.768;2022-09-04T10:33:31;95276.28;;;23.26;54.50
10832;BME280;5469;48.574;8.768;2022-09-04T10:36:25;95273.50;;;22.98;55.28
10832;BME280;5469;48.574;8.768;2022-09-04T10:39:16;95274.34;;;25.06;50.86
10832;BME280;5469;48.574;8.768;2022-09-04T10:42:24;95270.97;;;25.67;51.08
10832;BME280;5469;48.574;8.768;2022-09-04T10:45:14;95265.47;;;27.55;48.61
10832;BME280;5469;48.574;8.768;2022-09-04T10:48:19;95261.00;;;29.73;46.41
10832;BME280;5469;48.574;8.768;2022-09-04T11:00:20;95260.50;;;27.34;44.82
10832;BME280;5469;48.574;8.768;2022-09-04T11:03:25;95261.25;;;27.31;45.46
10832;BME280;5469;48.574;8.768;2022-09-04T11:06:36;95262.25;;;26.43;44.38
10832;BME280;5469;48.574;8.768;2022-09-04T11:09:34;95257.13;;;26.15;47.81
10832;BME280;5469;48.574;8.768;2022-09-04T11:12:30;95262.59;;;25.96;47.27
10832;BME280;5469;48.574;8.768;2022-09-04T11:15:37;95262.09;;;25.32;46.82
10832;BME280;5469;48.574;8.768;2022-09-04T11:18:42;95263.50;;;25.84;47.84
10832;BME280;5469;48.574;8.768;2022-09-04T11:21:59;95257.69;;;28.28;48.52
10832;BME280;5469;48.574;8.768;2022-09-04T11:25:21;95255.06;;;27.34;43.39
10832;BME280;5469;48.574;8.768;2022-09-04T11:31:24;95250.53;;;26.39;46.10
10832;BME280;5469;48.574;8.768;2022-09-04T11:34:32;95261.41;;;26.39;46.38
10832;BME280;5469;48.574;8.768;2022-09-04T11:37:30;95258.31;;;26.41;46.28
10832;BME280;5469;48.574;8.768;2022-09-04T11:40:29;95253.91;;;26.09;47.01
10832;BME280;5469;48.574;8.768;2022-09-04T11:43:23;95254.00;;;26.13;47.01
10832;BME280;5469;48.574;8.768;2022-09-04T11:52:24;95256.34;;;27.14;45.66
10832;BME280;5469;48.574;8.768;2022-09-04T11:55:24;95258.75;;;26.20;44.84
10832;BME280;5469;48.574;8.768;2022-09-04T11:58:20;95260.66;;;25.96;45.91
10832;BME280;5469;48.574;8.768;2022-09-04T12:01:02;95262.66;;;25.99;45.96
10832;BME280;5469;48.574;8.768;2022-09-04T12:04:10;95259.53;;;25.78;46.23
10832;BME280;5469;48.574;8.768;2022-09-04T12:07:05;95262.25;;;25.97;45.70
10832;BME280;5469;48.574;8.768;2022-09-04T12:10:11;95280.25;;;26.05;46.09
10832;BME280;5469;48.574;8.768;2022-09-04T12:19:20;95271.53;;;25.57;46.27
10832;BME280;5469;48.574;8.768;2022-09-04T12:28:34;95263.50;;;30.89;37.27
10832;BME280;5469;48.574;8.768;2022-09-04T12:31:25;95258.63;;;31.65;37.89
10832;BME280;5469;48.574;8.768;2022-09-04T12:34:36;95262.81;;;31.88;37.12
10832;BME280;5469;48.574;8.768;2022-09-04T12:37:42;95259.66;;;32.59;36.28
10832;BME280;5469;48.574;8.768;2022-09-04T12:40:31;95259.28;;;33.02;34.08
10832;BME280;5469;48.574;8.768;2022-09-04T12:43:14;95266.06;;;33.32;33.90
10832;BME280;5469;48.574;8.768;2022-09-04T12:46:01;95263.19;;;33.77;32.81
10832;BME280;5469;48.574;8.768;2022-09-04T12:48:44;95256.25;;;35.25;31.76
10832;BME280;5469;48.574;8.768;2022-09-04T12:51:24;95258.91;;;35.52;31.63
10832;BME280;5469;48.574;8.768;2022-09-04T12:54:23;95263.59;;;34.10;31.15
10832;BME280;5469;48.574;8.768;2022-09-04T12:57:14;95257.53;;;32.26;30.17
10832;BME280;5469;48.574;8.768;2022-09-04T13:00:02;95267.34;;;32.79;29.57
10832;BME280;5469;48.574;8.768;2022-09-04T13:02:52;95265.81;;;33.54;29.89
10832;BME280;5469;48.574;8.768;2022-09-04T13:05:45;95262.78;;;35.54;31.92
10832;BME280;5469;48.574;8.768;2022-09-04T13:08:32;95264.31;;;35.55;29.92
10832;BME280;5469;48.574;8.768;2022-09-04T13:11:21;95259.88;;;34.98;32.29
10832;BME280;5469;48.574;8.768;2022-09-04T13:14:33;95263.94;;;36.13;29.12
10832;BME280;5469;48.574;8.768;2022-09-04T13:17:19;95262.13;;;35.03;29.98
10832;BME280;5469;48.574;8.768;2022-09-04T13:20:02;95255.41;;;36.07;28.46
10832;BME280;5469;48.574;8.768;2022-09-04T13:22:51;95258.53;;;35.30;29.29
10832;BME280;5469;48.574;8.768;2022-09-04T13:25:39;95253.88;;;35.66;28.41
10832;BME280;5469;48.574;8.768;2022-09-04T13:28:24;95263.81;;;33.92;30.24
10832;BME280;5469;48.574;8.768;2022-09-04T13:31:30;95256.19;;;31.82;34.58
10832;BME280;5469;48.574;8.768;2022-09-04T13:34:15;95254.56;;;33.06;33.93
10832;BME280;5469;48.574;8.768;2022-09-04T13:36:57;95249.53;;;34.82;30.85
10832;BME280;5469;48.574;8.768;2022-09-04T13:39:56;95260.47;;;35.09;29.62
10832;BME280;5469;48.574;8.768;2022-09-04T13:42:57;95258.97;;;34.00;31.96
10832;BME280;5469;48.574;8.768;2022-09-04T13:45:41;95260.13;;;34.33;31.67
10832;BME280;5469;48.574;8.768;2022-09-04T13:48:30;95258.38;;;35.37;30.23
10832;BME280;5469;48.574;8.768;2022-09-04T13:51:10;95252.38;;;35.22;29.30
10832;BME280;5469;48.574;8.768;2022-09-04T13:53:56;95255.22;;;35.58;28.47
10832;BME280;5469;48.574;8.768;2022-09-04T13:56:36;95259.13;;;34.94;29.28
10832;BME280;5469;48.574;8.768;2022-09-04T13:59:17;95258.38;;;36.17;29.32
10832;BME280;5469;48.574;8.768;2022-09-04T14:01:56;95261.69;;;35.08;28.45
10832;BME280;5469;48.574;8.768;2022-09-04T14:04:42;95249.50;;;35.49;27.37
10832;BME280;5469;48.574;8.768;2022-09-04T14:07:22;95253.38;;;36.28;27.17
10832;BME280;5469;48.574;8.768;2022-09-04T14:10:01;95250.47;;;35.99;27.86
10832;BME280;5469;48.574;8.768;2022-09-04T14:12:59;95252.09;;;35.76;28.64
10832;BME280;5469;48.574;8.768;2022-09-04T14:15:49;95245.97;;;36.41;28.73
10832;BME280;5469;48.574;8.768;2022-09-04T14:18:56;95251.88;;;35.47;26.75
10832;BME280;5469;48.574;8.768;2022-09-04T14:21:42;95254.97;;;35.09;30.37
10832;BME280;5469;48.574;8.768;2022-09-04T14:24:24;95258.91;;;34.03;28.93
10832;BME280;5469;48.574;8.768;2022-09-04T14:27:12;95263.66;;;35.08;27.26
10832;BME280;5469;48.574;8.768;2022-09-04T14:30:00;95254.59;;;34.84;28.82
10832;BME280;5469;48.574;8.768;2022-09-04T14:35:38;95254.66;;;37.22;27.88
10832;BME280;5469;48.574;8.768;2022-09-04T14:41:32;95254.03;;;36.32;28.60
10832;BME280;5469;48.574;8.768;2022-09-04T14:44:16;95254.34;;;37.32;27.59
10832;BME280;5469;48.574;8.768;2022-09-04T14:47:01;95251.38;;;36.12;28.36
10832;BME280;5469;48.574;8.768;2022-09-04T14:49:43;95254.50;;;37.42;27.16
10832;BME280;5469;48.574;8.768;2022-09-04T14:52:24;95258.00;;;37.29;26.81
10832;BME280;5469;48.574;8.768;2022-09-04T14:55:02;95264.31;;;36.31;26.55
10832;BME280;5469;48.574;8.768;2022-09-04T14:57:41;95258.19;;;35.48;26.85
10832;BME280;5469;48.574;8.768;2022-09-04T15:00:19;95262.34;;;36.48;29.28
10832;BME280;5469;48.574;8.768;2022-09-04T15:02:59;95264.00;;;37.11;28.08
10832;BME280;5469;48.574;8.768;2022-09-04T15:05:44;95261.00;;;36.73;25.38
10832;BME280;5469;48.574;8.768;2022-09-04T15:08:30;95254.28;;;35.45;28.17
10832;BME280;5469;48.574;8.768;2022-09-04T15:11:09;95259.84;;;34.51;26.45
10832;BME280;5469;48.574;8.768;2022-09-04T15:14:05;95250.25;;;36.26;27.15
10832;BME280;5469;48.574;8.768;2022-09-04T15:16:47;95252.66;;;36.24;27.56
10832;BME280;5469;48.574;8.768;2022-09-04T15:19:28;95245.72;;;34.96;29.35
10832;BME280;5469;48.574;8.768;2022-09-04T15:22:13;95251.84;;;34.33;27.44
10832;BME280;5469;48.574;8.768;2022-09-04T15:24:54;95250.03;;;34.73;28.51
10832;BME280;5469;48.574;8.768;2022-09-04T15:27:36;95253.00;;;34.35;27.98
10832;BME280;5469;48.574;8.768;2022-09-04T15:30:21;95253.63;;;34.94;28.86
10832;BME280;5469;48.574;8.768;2022-09-04T15:33:05;95243.47;;;34.91;28.53
10832;BME280;5469;48.574;8.768;2022-09-04T15:35:41;95249.03;;;34.36;27.69
10832;BME280;5469;48.574;8.768;2022-09-04T15:38:18;95244.69;;;34.12;28.98
10832;BME280;5469;48.574;8.768;2022-09-04T15:40:59;95247.84;;;34.88;29.81
10832;BME280;5469;48.574;8.768;2022-09-04T15:43:41;95252.16;;;34.39;27.38
10832;BME280;5469;48.574;8.768;2022-09-04T15:46:35;95251.50;;;33.69;30.07
10832;BME280;5469;48.574;8.768;2022-09-04T15:49:20;95247.00;;;34.17;29.33
10832;BME280;5469;48.574;8.768;2022-09-04T15:52:04;95247.91;;;34.61;27.77
10832;BME280;5469;48.574;8.768;2022-09-04T15:55:03;95234.63;;;35.43;28.57
10832;BME280;5469;48.574;8.768;2022-09-04T15:57:49;95246.56;;;34.93;28.58
10832;BME280;5469;48.574;8.768;2022-09-04T16:00:30;95243.75;;;34.22;29.43
10832;BME280;5469;48.574;8.768;2022-09-04T16:03:17;95247.91;;;33.76;29.44
10832;BME280;5469;48.574;8.768;2022-09-04T16:06:00;95235.78;;;34.01;29.95
10832;BME280;5469;48.574;8.768;2022-09-04T16:08:43;95247.22;;;33.34;29.54
10832;BME280;5469;48.574;8.768;2022-09-04T16:11:27;95244.81;;;33.36;30.77
10832;BME280;5469;48.574;8.768;2022-09-04T16:14:08;95240.25;;;33.26;30.20
10832;BME280;5469;48.574;8.768;2022-09-04T16:16:48;95237.13;;;33.58;29.76
10832;BME280;5469;48.574;8.768;2022-09-04T16:19:30;95242.38;;;33.45;29.83
10832;BME280;5469;48.574;8.768;2022-09-04T16:22:16;95237.84;;;33.28;30.76
10832;BME280;5469;48.574;8.768;2022-09-04T16:25:04;95237.97;;;33.51;31.11
10832;BME280;5469;48.574;8.768;2022-09-04T16:27:46;95227.41;;;33.50;31.67
10832;BME280;5469;48.574;8.768;2022-09-04T16:30:39;95237.53;;;33.22;33.07
10832;BME280;5469;48.574;8.768;2022-09-04T16:33:24;95241.47;;;33.56;31.20
10832;BME280;5469;48.574;8.768;2022-09-04T16:36:06;95237.13;;;33.24;30.75
10832;BME280;5469;48.574;8.768;2022-09-04T16:38:46;95230.22;;;33.09;32.41
10832;BME280;5469;48.574;8.768;2022-09-04T16:41:30;95240.25;;;32.81;32.03
10832;BME280;5469;48.574;8.768;2022-09-04T16:44:17;95226.25;;;32.72;31.84